Time;durP1;ratioP1;P1;durP2;ratioP2;P2;SDS_P1;SDS_P2;PMS_P1;PMS_P2;Temp;Humidity;BMP_temperature;BMP_pressure;BME280_temperature;BME280_humidity;BME280_pressure;Samples;Min_cycle;Max_cycle;Signal;HPM_P1;HPM_P2
2021/09/17 00:00:13;;;;;;;69.80;43.88;;;14.00;99.90;;;;;;5031686;28;20029;-69
2021/09/17 00:02:39;;;;;;;63.88;41.28;;;14.00;99.90;;;;;;5031507;28;20116;-69
2021/09/17 00:05:06;;;;;;;67.80;43.83;;;14.00;99.90;;;;;;5031406;28;20107;-69
2021/09/17 00:07:32;;;;;;;65.72;42.70;;;14.10;99.90;;;;;;5031025;28;20017;-69
2021/09/17 00:09:58;;;;;;;71.20;43.80;;;14.10;99.90;;;;;;5031306;28;20052;-69
2021/09/17 00:12:23;;;;;;;71.10;43.47;;;14.10;99.90;;;;;;5031059;28;20487;-69
2021/09/17 00:14:49;;;;;;;63.33;43.00;;;14.10;99.90;;;;;;5031110;28;20030;-69
2021/09/17 00:17:15;;;;;;;63.42;42.58;;;14.10;99.90;;;;;;5030878;28;20069;-69
2021/09/17 00:19:40;;;;;;;64.15;41.90;;;14.10;99.90;;;;;;5031279;28;20368;-69
2021/09/17 00:22:06;;;;;;;68.88;45.22;;;14.20;99.90;;;;;;5031280;28;20021;-69
2021/09/17 00:24:32;;;;;;;60.92;41.65;;;14.10;99.90;;;;;;5030828;28;20482;-70
2021/09/17 00:26:58;;;;;;;64.03;42.40;;;14.10;99.90;;;;;;5031498;28;20034;-69
2021/09/17 00:29:24;;;;;;;61.55;41.47;;;14.10;99.90;;;;;;5030662;28;20042;-69
2021/09/17 00:31:50;;;;;;;63.78;41.83;;;14.20;99.90;;;;;;5029903;28;20068;-69
2021/09/17 00:34:16;;;;;;;67.22;42.35;;;14.20;99.90;;;;;;5030743;28;20080;-69
2021/09/17 00:36:41;;;;;;;69.10;43.85;;;14.20;99.90;;;;;;5034412;28;20029;-69
2021/09/17 00:39:12;;;;;;;71.35;44.65;;;14.20;99.90;;;;;;5033440;28;20135;-69
2021/09/17 00:41:38;;;;;;;72.07;44.17;;;14.20;99.90;;;;;;5032754;28;20418;-69
2021/09/17 00:44:04;;;;;;;66.25;44.13;;;14.20;99.90;;;;;;5034704;28;20029;-69
2021/09/17 00:46:29;;;;;;;67.55;43.17;;;14.20;99.90;;;;;;5034035;28;20087;-69
2021/09/17 00:48:55;;;;;;;71.30;44.88;;;14.20;99.90;;;;;;5034684;28;20377;-70
2021/09/17 00:51:20;;;;;;;74.00;43.92;;;14.20;99.90;;;;;;5034057;28;20025;-68
2021/09/17 00:53:46;;;;;;;65.78;43.78;;;14.20;99.90;;;;;;5034317;28;20022;-69
2021/09/17 00:56:11;;;;;;;66.72;41.85;;;14.10;99.90;;;;;;5034198;28;20080;-69
2021/09/17 00:58:37;;;;;;;66.05;43.55;;;14.20;99.90;;;;;;5034017;28;20108;-69
2021/09/17 01:01:03;;;;;;;63.80;42.65;;;14.10;99.90;;;;;;5034189;28;20017;-69
2021/09/17 01:03:29;;;;;;;61.15;40.33;;;14.10;99.90;;;;;;5033689;28;20017;-69
2021/09/17 01:05:54;;;;;;;66.22;42.20;;;14.20;99.90;;;;;;5034436;28;20032;-69
2021/09/17 01:08:20;;;;;;;65.93;43.00;;;14.20;99.90;;;;;;5033881;28;20487;-69
2021/09/17 01:10:46;;;;;;;72.60;44.03;;;14.20;99.90;;;;;;5034179;28;20039;-69
2021/09/17 01:13:12;;;;;;;69.97;44.42;;;14.20;99.90;;;;;;5033942;28;20036;-69
2021/09/17 01:15:38;;;;;;;70.45;42.55;;;14.20;99.90;;;;;;5033102;28;20052;-69
2021/09/17 01:18:03;;;;;;;73.03;45.63;;;14.20;99.90;;;;;;5033715;28;20026;-69
2021/09/17 01:20:29;;;;;;;73.60;45.42;;;14.20;99.90;;;;;;5033704;28;20026;-69
2021/09/17 01:22:54;;;;;;;76.82;46.65;;;14.20;99.90;;;;;;5033909;28;20029;-69
2021/09/17 01:25:21;;;;;;;88.70;48.75;;;14.20;99.90;;;;;;5033587;28;20364;-69
2021/09/17 01:27:49;;;;;;;79.57;48.17;;;14.20;99.90;;;;;;5032564;28;20087;-69
2021/09/17 01:30:16;;;;;;;78.90;47.85;;;14.20;99.90;;;;;;5033500;28;20022;-69
2021/09/17 01:32:42;;;;;;;76.88;46.08;;;14.30;99.90;;;;;;5034004;28;20430;-69
2021/09/17 01:35:10;;;;;;;78.15;48.20;;;14.30;99.90;;;;;;5033708;28;20029;-69
2021/09/17 01:37:36;;;;;;;82.38;49.50;;;14.30;99.90;;;;;;5033301;28;20076;-68
2021/09/17 01:40:02;;;;;;;76.25;47.35;;;14.30;99.90;;;;;;5033815;28;20049;-69
2021/09/17 01:42:27;;;;;;;85.25;52.38;;;14.30;99.90;;;;;;5031653;28;20030;-69
2021/09/17 01:44:53;;;;;;;89.53;54.63;;;14.30;99.90;;;;;;5033545;28;20029;-69
2021/09/17 01:47:18;;;;;;;91.65;53.55;;;14.40;99.90;;;;;;5031699;28;20052;-69
2021/09/17 01:49:44;;;;;;;92.57;57.17;;;14.40;99.90;;;;;;5033483;28;20029;-69
2021/09/17 01:52:10;;;;;;;103.45;57.05;;;14.40;99.90;;;;;;5033415;28;20040;-69
2021/09/17 01:54:36;;;;;;;92.15;57.22;;;14.50;99.90;;;;;;5033545;28;20021;-69
2021/09/17 01:57:02;;;;;;;89.85;56.50;;;14.50;99.90;;;;;;5033039;28;20547;-69
2021/09/17 01:59:28;;;;;;;96.05;57.35;;;14.60;99.90;;;;;;5032757;28;20112;-69
2021/09/17 02:01:53;;;;;;;99.38;57.83;;;14.60;99.90;;;;;;5033320;28;20159;-69
2021/09/17 02:04:19;;;;;;;93.47;55.17;;;14.60;99.90;;;;;;5032787;28;20033;-69
2021/09/17 02:06:45;;;;;;;93.72;55.90;;;14.60;99.90;;;;;;5033225;28;20029;-69
2021/09/17 02:09:10;;;;;;;92.68;55.28;;;14.70;99.90;;;;;;5033130;28;20021;-69
2021/09/17 02:11:36;;;;;;;92.97;56.10;;;14.80;99.90;;;;;;5032561;28;20112;-69
2021/09/17 02:14:02;;;;;;;95.10;54.35;;;14.70;99.90;;;;;;5032853;28;20029;-69
2021/09/17 02:16:28;;;;;;;90.50;55.65;;;14.80;99.90;;;;;;5032057;28;20113;-68
2021/09/17 02:18:54;;;;;;;100.53;57.75;;;14.80;99.90;;;;;;5032739;28;20110;-69
2021/09/17 02:21:21;;;;;;;99.85;58.00;;;14.80;99.90;;;;;;5032471;28;20049;-69
2021/09/17 02:23:48;;;;;;;90.38;55.13;;;14.80;99.90;;;;;;5032731;28;20714;-68
2021/09/17 02:26:13;;;;;;;91.88;56.20;;;14.90;99.90;;;;;;5032605;28;20476;-69
2021/09/17 02:28:39;;;;;;;96.22;57.65;;;14.90;99.90;;;;;;5032726;28;20071;-69
2021/09/17 02:31:05;;;;;;;100.80;58.00;;;14.90;99.90;;;;;;5032692;28;20076;-69
2021/09/17 02:33:31;;;;;;;91.45;55.22;;;14.90;99.90;;;;;;5032339;28;20033;-69
2021/09/17 02:35:58;;;;;;;95.97;57.83;;;15.00;99.90;;;;;;5032368;28;20045;-69
2021/09/17 02:38:23;;;;;;;88.80;54.35;;;15.00;99.90;;;;;;5032168;28;20498;-69
2021/09/17 02:40:49;;;;;;;89.07;53.78;;;14.90;99.90;;;;;;5032416;28;20025;-69
2021/09/17 02:43:15;;;;;;;88.65;52.83;;;15.00;99.90;;;;;;5031817;28;20353;-69
2021/09/17 02:45:41;;;;;;;93.53;53.50;;;14.90;99.90;;;;;;5032464;28;20044;-69
2021/09/17 02:48:06;;;;;;;89.47;53.22;;;14.90;99.90;;;;;;5032495;28;20025;-69
2021/09/17 02:50:32;;;;;;;85.10;52.60;;;15.00;99.90;;;;;;5032008;28;20017;-69
2021/09/17 02:52:58;;;;;;;91.88;53.78;;;14.90;99.90;;;;;;5032174;28;20030;-69
2021/09/17 02:55:23;;;;;;;85.82;53.38;;;14.90;99.90;;;;;;5031851;28;20037;-69
2021/09/17 02:57:49;;;;;;;84.18;52.20;;;14.90;99.90;;;;;;5031377;28;20121;-69
2021/09/17 03:00:15;;;;;;;87.82;52.75;;;14.90;99.90;;;;;;5031834;28;20028;-69
2021/09/17 03:02:40;;;;;;;90.90;53.65;;;14.90;99.90;;;;;;5032054;28;20385;-69
2021/09/17 03:05:06;;;;;;;93.65;55.88;;;15.00;99.90;;;;;;5032191;28;20052;-68
2021/09/17 03:07:32;;;;;;;88.15;53.40;;;15.00;99.90;;;;;;5031663;28;20061;-68
2021/09/17 03:09:57;;;;;;;87.22;52.00;;;15.00;99.90;;;;;;5032016;28;20044;-68
2021/09/17 03:12:23;;;;;;;86.90;53.58;;;15.00;99.90;;;;;;5031476;28;20030;-68
2021/09/17 03:14:48;;;;;;;91.70;53.35;;;15.00;99.90;;;;;;5031790;28;20032;-69
2021/09/17 03:17:15;;;;;;;90.38;53.67;;;15.00;99.90;;;;;;5031607;28;20045;-68
2021/09/17 03:19:40;;;;;;;90.05;53.58;;;15.00;99.90;;;;;;5031650;28;20034;-68
2021/09/17 03:22:06;;;;;;;82.25;50.67;;;15.00;99.90;;;;;;5031803;28;20033;-69
2021/09/17 03:24:32;;;;;;;87.47;50.65;;;15.00;99.90;;;;;;5031438;28;20032;-69
2021/09/17 03:26:57;;;;;;;87.57;51.22;;;15.00;99.90;;;;;;5031575;28;20064;-69
2021/09/17 03:29:23;;;;;;;82.03;50.03;;;15.00;99.90;;;;;;5031381;28;20029;-69
2021/09/17 03:31:49;;;;;;;83.07;51.42;;;15.00;99.90;;;;;;5031439;28;20026;-69
2021/09/17 03:34:15;;;;;;;85.18;50.13;;;15.00;99.90;;;;;;5031729;28;20052;-69
2021/09/17 03:36:43;;;;;;;82.30;48.90;;;15.00;99.90;;;;;;5031668;28;20021;-69
2021/09/17 03:39:11;;;;;;;84.65;50.10;;;15.00;99.90;;;;;;5030668;28;20049;-69
2021/09/17 03:41:37;;;;;;;87.55;51.42;;;14.90;99.90;;;;;;5030799;28;20091;-69
2021/09/17 03:44:03;;;;;;;87.32;51.13;;;14.90;99.90;;;;;;5031673;28;20017;-68
2021/09/17 03:46:29;;;;;;;82.22;49.15;;;14.90;99.90;;;;;;5031231;28;20030;-69
2021/09/17 03:48:54;;;;;;;85.20;51.17;;;14.90;99.90;;;;;;5030326;28;20120;-69
2021/09/17 03:51:20;;;;;;;79.22;49.10;;;14.90;99.90;;;;;;5031205;28;20087;-68
2021/09/17 03:53:46;;;;;;;82.93;50.15;;;14.90;99.90;;;;;;5030363;28;20095;-69
2021/09/17 03:56:11;;;;;;;87.22;48.30;;;14.90;99.90;;;;;;5031327;28;20068;-69
2021/09/17 03:58:37;;;;;;;81.68;50.47;;;14.90;99.90;;;;;;5029914;28;20527;-69
2021/09/17 04:01:02;;;;;;;88.20;50.83;;;14.90;99.90;;;;;;5031498;28;20022;-69
2021/09/17 04:03:28;;;;;;;84.88;49.85;;;14.90;99.90;;;;;;5029742;28;20049;-68
2021/09/17 04:05:54;;;;;;;84.22;49.40;;;14.90;99.90;;;;;;5031326;28;20029;-69
2021/09/17 04:08:19;;;;;;;83.95;51.40;;;14.90;99.90;;;;;;5031583;28;20038;-69
2021/09/17 04:10:45;;;;;;;80.82;49.80;;;14.90;99.90;;;;;;5034674;28;20052;-71
2021/09/17 04:13:10;;;;;;;81.80;50.92;;;14.90;99.90;;;;;;5035168;28;20033;-69
2021/09/17 04:15:36;;;;;;;75.75;48.95;;;14.90;99.90;;;;;;5034543;28;20395;-69
2021/09/17 04:18:01;;;;;;;76.72;47.30;;;14.90;99.90;;;;;;5035143;28;20037;-69
2021/09/17 04:20:27;;;;;;;72.95;45.05;;;14.90;99.90;;;;;;5033306;28;20075;-69
2021/09/17 04:22:52;;;;;;;74.28;46.72;;;14.90;99.90;;;;;;5035156;28;20018;-69
2021/09/17 04:25:18;;;;;;;72.07;45.72;;;14.90;99.90;;;;;;5034188;28;20021;-68
2021/09/17 04:27:44;;;;;;;72.85;44.45;;;14.90;99.90;;;;;;5035143;28;20053;-69
2021/09/17 04:30:12;;;;;;;73.03;46.28;;;14.90;99.90;;;;;;5034986;28;20053;-69
2021/09/17 04:32:38;;;;;;;63.95;43.28;;;15.00;99.90;;;;;;5034484;28;20479;-69
2021/09/17 04:35:04;;;;;;;64.03;44.13;;;15.00;99.90;;;;;;5034805;28;20037;-69
2021/09/17 04:37:30;;;;;;;65.50;43.85;;;15.00;99.90;;;;;;5034255;28;20033;-69
2021/09/17 04:39:55;;;;;;;64.07;41.70;;;15.00;99.90;;;;;;5033425;28;20492;-69
2021/09/17 04:42:21;;;;;;;63.17;42.25;;;15.00;99.90;;;;;;5034212;28;20026;-69
2021/09/17 04:44:46;;;;;;;60.85;39.20;;;15.00;99.90;;;;;;5034545;28;20356;-69
2021/09/17 04:47:13;;;;;;;60.95;38.38;;;15.00;99.90;;;;;;5034795;28;20040;-69
2021/09/17 04:49:38;;;;;;;60.75;39.72;;;14.90;99.90;;;;;;5034456;28;20021;-68
2021/09/17 04:52:04;;;;;;;58.53;38.42;;;15.00;99.90;;;;;;5034778;28;20044;-69
2021/09/17 04:54:29;;;;;;;56.80;38.42;;;15.00;99.90;;;;;;5033902;28;20025;-69
2021/09/17 04:56:55;;;;;;;61.05;37.67;;;15.00;99.90;;;;;;5034392;28;20072;-68
2021/09/17 04:59:21;;;;;;;57.70;38.15;;;15.00;99.90;;;;;;5034138;28;20498;-69
2021/09/17 05:01:47;;;;;;;52.58;36.50;;;15.00;99.90;;;;;;5034304;28;20017;-69
2021/09/17 05:04:13;;;;;;;54.10;36.65;;;15.00;99.90;;;;;;5034230;28;20017;-69
2021/09/17 05:06:38;;;;;;;56.60;35.53;;;15.00;99.90;;;;;;5034208;28;20075;-68
2021/09/17 05:09:04;;;;;;;53.15;35.75;;;15.00;99.90;;;;;;5034340;28;20384;-69
2021/09/17 05:11:29;;;;;;;60.15;39.17;;;15.00;99.90;;;;;;5033547;28;20116;-69
2021/09/17 05:13:55;;;;;;;56.75;36.28;;;15.00;99.90;;;;;;5034234;28;20560;-68
2021/09/17 05:16:21;;;;;;;54.28;37.50;;;15.00;99.90;;;;;;5033560;28;20088;-68
2021/09/17 05:18:46;;;;;;;57.33;36.35;;;15.00;99.90;;;;;;5033999;28;20087;-69
2021/09/17 05:21:13;;;;;;;52.20;34.50;;;15.00;99.90;;;;;;5033360;28;20021;-69
2021/09/17 05:23:39;;;;;;;53.13;35.92;;;14.90;99.90;;;;;;5033779;28;20165;-69
2021/09/17 05:26:05;;;;;;;49.70;34.40;;;14.90;99.90;;;;;;5033647;28;20487;-68
2021/09/17 05:28:32;;;;;;;52.97;35.88;;;14.90;99.90;;;;;;5033504;28;20025;-68
2021/09/17 05:30:57;;;;;;;51.50;34.85;;;14.90;99.90;;;;;;5034012;28;20503;-68
2021/09/17 05:33:23;;;;;;;46.08;32.08;;;14.90;99.90;;;;;;5033294;28;20032;-69
2021/09/17 05:35:48;;;;;;;46.80;33.42;;;14.90;99.90;;;;;;5033817;28;20036;-68
2021/09/17 05:38:14;;;;;;;47.42;33.70;;;14.90;99.90;;;;;;5033204;28;20025;-69
2021/09/17 05:40:40;;;;;;;48.47;32.90;;;14.90;99.90;;;;;;5033600;28;20405;-69
2021/09/17 05:43:05;;;;;;;46.15;32.60;;;14.90;99.90;;;;;;5033442;28;20079;-68
2021/09/17 05:45:31;;;;;;;48.65;32.30;;;15.00;99.90;;;;;;5033151;28;20083;-69
2021/09/17 05:47:56;;;;;;;50.08;32.75;;;15.00;99.90;;;;;;5033203;28;20091;-68
2021/09/17 05:50:22;;;;;;;45.22;31.75;;;15.00;99.90;;;;;;5031849;28;20033;-69
2021/09/17 05:52:47;;;;;;;47.72;31.55;;;15.00;99.90;;;;;;5033430;28;20038;-69
2021/09/17 05:55:13;;;;;;;44.25;30.60;;;15.10;99.90;;;;;;5033203;28;20492;-68
2021/09/17 05:57:39;;;;;;;44.97;32.13;;;15.10;99.90;;;;;;5033278;28;20103;-68
2021/09/17 06:00:06;;;;;;;43.33;30.00;;;15.10;99.90;;;;;;5033331;28;20101;-69
2021/09/17 06:02:32;;;;;;;42.83;30.98;;;15.20;99.90;;;;;;5032855;28;20025;-68
2021/09/17 06:04:57;;;;;;;47.75;31.33;;;15.20;99.90;;;;;;5033228;28;20033;-69
2021/09/17 06:07:23;;;;;;;45.78;29.88;;;15.20;99.90;;;;;;5032677;28;20025;-69
2021/09/17 06:09:48;;;;;;;47.15;32.40;;;15.30;99.90;;;;;;5032794;28;20053;-69
2021/09/17 06:12:13;;;;;;;46.70;31.50;;;15.30;99.90;;;;;;5032357;28;20095;-69
2021/09/17 06:14:39;;;;;;;47.55;32.78;;;15.30;99.90;;;;;;5032737;28;20078;-69
2021/09/17 06:17:04;;;;;;;49.05;31.92;;;15.40;99.90;;;;;;5032816;28;20048;-68
2021/09/17 06:19:30;;;;;;;43.95;32.03;;;15.40;99.90;;;;;;5032481;28;20030;-68
2021/09/17 06:21:56;;;;;;;48.75;32.90;;;15.40;99.90;;;;;;5032912;28;20022;-68
2021/09/17 06:24:21;;;;;;;48.15;32.33;;;15.50;99.90;;;;;;5032473;28;20155;-69
2021/09/17 06:26:47;;;;;;;44.03;31.90;;;15.50;99.90;;;;;;5032561;28;20037;-69
2021/09/17 06:29:12;;;;;;;50.88;32.70;;;15.60;99.90;;;;;;5032731;28;20018;-69
2021/09/17 06:31:38;;;;;;;44.70;31.08;;;15.60;99.90;;;;;;5032500;28;20025;-69
2021/09/17 06:34:05;;;;;;;47.60;30.60;;;15.70;99.90;;;;;;5031718;28;20022;-68
2021/09/17 06:36:31;;;;;;;41.13;30.90;;;15.80;99.90;;;;;;5032068;28;20033;-69
2021/09/17 06:38:57;;;;;;;40.63;30.40;;;15.90;99.90;;;;;;5032600;28;20491;-69
2021/09/17 06:41:23;;;;;;;41.40;30.92;;;15.90;99.90;;;;;;5032051;28;20395;-69
2021/09/17 06:43:49;;;;;;;41.20;29.70;;;16.00;99.90;;;;;;5031314;28;20112;-69
2021/09/17 06:46:15;;;;;;;44.65;30.58;;;16.00;99.90;;;;;;5032240;28;20108;-68
2021/09/17 06:48:41;;;;;;;37.58;29.48;;;16.10;99.90;;;;;;5032165;28;20041;-69
2021/09/17 06:51:06;;;;;;;43.40;30.23;;;16.10;99.90;;;;;;5032540;28;20018;-69
2021/09/17 06:53:32;;;;;;;41.83;29.70;;;16.20;99.90;;;;;;5031856;28;20029;-69
2021/09/17 06:55:58;;;;;;;39.80;28.98;;;16.30;99.90;;;;;;5032101;28;20033;-69
2021/09/17 06:58:28;;;;;;;44.45;30.08;;;16.30;99.90;;;;;;5031777;28;20471;-69
2021/09/17 07:00:55;;;;;;;41.13;28.52;;;16.30;99.90;;;;;;5032352;28;20092;-69
2021/09/17 07:03:20;;;;;;;37.88;29.30;;;16.40;99.90;;;;;;5031790;28;20049;-69
2021/09/17 07:05:45;;;;;;;38.10;29.38;;;16.40;99.90;;;;;;5032214;28;20143;-69
2021/09/17 07:08:11;;;;;;;40.92;29.98;;;16.50;99.90;;;;;;5032135;28;20044;-69
2021/09/17 07:10:38;;;;;;;40.60;29.00;;;16.50;99.90;;;;;;5031442;28;20345;-69
2021/09/17 07:13:05;;;;;;;38.92;30.58;;;16.50;99.90;;;;;;5032119;28;20052;-69
2021/09/17 07:15:31;;;;;;;38.58;30.55;;;16.60;99.90;;;;;;5031393;28;20056;-69
2021/09/17 07:17:57;;;;;;;40.47;29.73;;;16.60;99.90;;;;;;5031971;28;20037;-69
2021/09/17 07:20:23;;;;;;;42.92;27.88;;;16.70;99.90;;;;;;5031877;28;20030;-69
2021/09/17 07:22:49;;;;;;;35.28;26.92;;;16.80;99.90;;;;;;5031821;28;20029;-69
2021/09/17 07:25:15;;;;;;;34.72;27.05;;;16.80;99.90;;;;;;5031500;28;20024;-69
2021/09/17 07:27:41;;;;;;;35.53;27.67;;;16.80;99.90;;;;;;5032083;28;20031;-69
2021/09/17 07:30:08;;;;;;;39.25;27.83;;;16.90;99.90;;;;;;5031891;28;20022;-69
2021/09/17 07:32:34;;;;;;;33.58;26.08;;;16.90;99.90;;;;;;5031480;28;20039;-69
2021/09/17 07:34:59;;;;;;;37.05;26.65;;;16.90;99.90;;;;;;5031692;28;20084;-69
2021/09/17 07:37:25;;;;;;;36.83;28.08;;;17.00;99.90;;;;;;5031410;28;20029;-69
2021/09/17 07:39:51;;;;;;;35.13;26.73;;;17.00;99.90;;;;;;5031435;28;20022;-69
2021/09/17 07:42:17;;;;;;;39.83;28.77;;;17.10;99.90;;;;;;5031309;28;20064;-69
2021/09/17 07:44:43;;;;;;;36.88;27.85;;;17.10;99.90;;;;;;5033728;28;20018;-69
2021/09/17 07:47:10;;;;;;;35.10;27.17;;;17.20;99.90;;;;;;5035845;28;20033;-69
2021/09/17 07:49:35;;;;;;;35.92;27.80;;;17.20;99.90;;;;;;5035388;28;20029;-69
2021/09/17 07:52:01;;;;;;;35.60;26.88;;;17.30;99.90;;;;;;5035581;28;20379;-69
2021/09/17 07:54:27;;;;;;;32.25;24.95;;;17.30;99.90;;;;;;5035114;28;20112;-69
2021/09/17 07:56:53;;;;;;;32.63;26.35;;;17.40;99.90;;;;;;5035483;28;20105;-69
2021/09/17 07:59:19;;;;;;;38.40;28.08;;;17.50;99.90;;;;;;5035229;28;20093;-69
2021/09/17 08:01:45;;;;;;;37.28;28.10;;;17.60;99.90;;;;;;5034387;28;20032;-69
2021/09/17 08:04:11;;;;;;;33.28;25.05;;;17.70;99.80;;;;;;5035500;28;20021;-69
2021/09/17 08:06:37;;;;;;;33.83;26.20;;;17.80;99.70;;;;;;5034953;28;20501;-69
2021/09/17 08:09:03;;;;;;;32.72;26.80;;;18.00;99.50;;;;;;5035283;28;20519;-69
2021/09/17 08:11:28;;;;;;;33.83;26.73;;;18.10;99.40;;;;;;5034903;28;20061;-69
2021/09/17 08:13:54;;;;;;;38.97;29.20;;;18.20;99.10;;;;;;5035005;28;20037;-69
2021/09/17 08:16:19;;;;;;;33.00;26.60;;;18.30;98.80;;;;;;5033533;28;20119;-69
2021/09/17 08:18:45;;;;;;;32.65;26.35;;;18.40;98.60;;;;;;5035053;28;20025;-69
2021/09/17 08:21:12;;;;;;;33.75;25.50;;;18.50;98.40;;;;;;5035177;28;20022;-69
2021/09/17 08:23:39;;;;;;;34.50;26.48;;;18.60;98.20;;;;;;5034748;28;20040;-69
2021/09/17 08:26:06;;;;;;;36.40;27.33;;;18.60;98.00;;;;;;5035358;28;20427;-69
2021/09/17 08:28:32;;;;;;;35.30;27.73;;;18.60;97.60;;;;;;5034594;28;20088;-69
2021/09/17 08:30:59;;;;;;;35.65;27.95;;;18.60;97.40;;;;;;5034873;28;20033;-69
2021/09/17 08:33:25;;;;;;;34.58;26.98;;;18.70;97.40;;;;;;5034947;28;20083;-69
2021/09/17 08:35:50;;;;;;;32.50;25.55;;;18.70;97.30;;;;;;5035234;28;20025;-69
2021/09/17 08:38:16;;;;;;;34.25;26.25;;;18.70;97.10;;;;;;5034478;28;20021;-69
2021/09/17 08:40:42;;;;;;;34.15;26.55;;;18.70;97.10;;;;;;5034707;28;20464;-69
2021/09/17 08:43:08;;;;;;;37.30;27.30;;;18.80;97.10;;;;;;5034895;28;20376;-70
2021/09/17 08:45:34;;;;;;;34.58;26.80;;;18.80;97.10;;;;;;5034311;28;20091;-69
2021/09/17 08:48:00;;;;;;;39.45;27.60;;;19.00;97.00;;;;;;5035016;28;20026;-69
2021/09/17 08:50:28;;;;;;;35.03;27.38;;;19.10;96.70;;;;;;5034499;28;20387;-69
2021/09/17 08:52:54;;;;;;;40.30;28.58;;;19.10;96.50;;;;;;5034398;28;20021;-69
2021/09/17 08:55:19;;;;;;;36.55;27.80;;;19.30;96.40;;;;;;5033364;28;20033;-70
2021/09/17 08:57:46;;;;;;;37.83;28.42;;;19.30;96.20;;;;;;5033824;28;20036;-71
2021/09/17 09:00:26;;;;;;;37.90;29.83;;;19.40;96.10;;;;;;5034635;28;20021;-69
2021/09/17 09:02:57;;;;;;;40.58;28.85;;;19.40;96.00;;;;;;5034219;28;20022;-70
2021/09/17 09:05:42;;;;;;;35.08;28.15;;;19.30;95.90;;;;;;5034101;28;20022;-69
2021/09/17 09:08:08;;;;;;;38.03;28.42;;;19.40;95.90;;;;;;5034228;28;20476;-69
2021/09/17 09:10:33;;;;;;;37.15;27.70;;;19.40;95.90;;;;;;5033880;28;20029;-69
2021/09/17 09:13:03;;;;;;;38.90;29.15;;;19.40;96.10;;;;;;5034148;28;20032;-69
2021/09/17 09:15:32;;;;;;;38.33;27.63;;;19.50;96.00;;;;;;5033790;28;20073;-69
2021/09/17 09:18:02;;;;;;;38.85;29.50;;;19.60;96.00;;;;;;5033565;28;20079;-69
2021/09/17 09:20:48;;;;;;;43.28;30.52;;;19.70;95.70;;;;;;5032732;28;20049;-70
2021/09/17 09:23:18;;;;;;;34.20;27.48;;;19.70;95.60;;;;;;5033585;28;20048;-70
2021/09/17 09:26:03;;;;;;;37.00;28.48;;;19.90;95.70;;;;;;5034256;28;20387;-69
2021/09/17 09:28:33;;;;;;;37.15;27.23;;;20.00;95.60;;;;;;5032109;28;20040;-70
2021/09/17 09:31:05;;;;;;;36.80;27.75;;;20.20;95.20;;;;;;5034001;28;20079;-69
2021/09/17 09:33:35;;;;;;;34.67;25.60;;;20.30;94.80;;;;;;5022843;28;20168;-69
2021/09/17 09:36:15;;;;;;;31.90;25.27;;;20.30;94.80;;;;;;5033778;28;20026;-69
2021/09/17 09:38:48;;;;;;;38.00;28.00;;;20.40;94.70;;;;;;5033687;28;20018;-70
2021/09/17 09:41:18;;;;;;;37.08;27.13;;;20.50;94.50;;;;;;5033103;28;20104;-69
2021/09/17 09:44:17;;;;;;;34.67;28.33;;;20.50;94.30;;;;;;5033481;28;20100;-69
2021/09/17 09:46:44;;;;;;;41.25;29.20;;;20.60;94.30;;;;;;5033634;28;20026;-69
2021/09/17 09:49:22;;;;;;;37.75;27.48;;;20.70;94.10;;;;;;5032240;28;20115;-69
2021/09/17 09:51:56;;;;;;;36.67;27.77;;;20.80;93.90;;;;;;5033610;28;20495;-69
2021/09/17 09:54:24;;;;;;;37.28;30.08;;;21.00;93.70;;;;;;5033126;28;20388;-69
2021/09/17 09:56:54;;;;;;;37.03;29.05;;;21.20;93.40;;;;;;5033305;28;20159;-69
2021/09/17 09:59:24;;;;;;;36.95;28.20;;;21.30;93.00;;;;;;5033034;28;20024;-69
2021/09/17 10:01:52;;;;;;;34.20;26.42;;;21.40;92.80;;;;;;5033065;28;20018;-69
2021/09/17 10:04:23;;;;;;;33.28;27.83;;;21.40;92.60;;;;;;5013041;28;20105;-69
2021/09/17 10:07:06;;;;;;;34.58;27.40;;;21.50;92.40;;;;;;5030928;28;20032;-69
2021/09/17 10:09:35;;;;;;;37.42;28.10;;;21.60;92.30;;;;;;5032947;28;20036;-69
2021/09/17 10:12:05;;;;;;;32.80;26.88;;;21.60;91.90;;;;;;5033087;28;20084;-69
2021/09/17 10:14:32;;;;;;;34.20;25.77;;;21.80;91.80;;;;;;5032445;28;20483;-69
2021/09/17 10:17:02;;;;;;;32.95;26.33;;;22.00;91.90;;;;;;5023506;28;20085;-69
2021/09/17 10:19:28;;;;;;;34.35;26.77;;;22.20;91.30;;;;;;5012919;28;20404;-69
2021/09/17 10:21:56;;;;;;;36.63;29.13;;;22.30;91.00;;;;;;5021221;28;20017;-69
2021/09/17 10:24:31;;;;;;;35.42;27.63;;;22.30;90.60;;;;;;5032703;28;20029;-69
2021/09/17 10:27:07;;;;;;;32.53;26.27;;;22.10;90.60;;;;;;5032759;28;20099;-69
2021/09/17 10:29:34;;;;;;;33.08;25.85;;;22.00;91.10;;;;;;5032490;28;20029;-69
2021/09/17 10:32:01;;;;;;;37.55;28.50;;;22.00;91.00;;;;;;5031413;28;20479;-69
2021/09/17 10:34:43;;;;;;;35.42;28.17;;;21.90;91.10;;;;;;5032663;28;20083;-69
2021/09/17 10:37:09;;;;;;;31.65;26.10;;;21.90;91.20;;;;;;5032530;28;20055;-70
2021/09/17 10:39:36;;;;;;;36.42;29.65;;;22.00;91.10;;;;;;5032161;28;20030;-69
2021/09/17 10:42:16;;;;;;;35.08;27.92;;;22.10;90.90;;;;;;5032522;28;20068;-69
2021/09/17 10:45:06;;;;;;;33.38;28.02;;;22.10;91.20;;;;;;5032586;28;20025;-69
2021/09/17 10:47:40;;;;;;;35.72;27.30;;;22.20;90.80;;;;;;5031952;28;20029;-69
2021/09/17 10:50:12;;;;;;;34.00;25.50;;;22.30;90.80;;;;;;5031160;28;20037;-70
2021/09/17 10:52:40;;;;;;;35.78;28.55;;;22.40;90.60;;;;;;5032122;28;20120;-70
2021/09/17 10:55:44;;;;;;;30.10;25.75;;;22.50;90.30;;;;;;5032396;28;20132;-71
2021/09/17 10:58:26;;;;;;;34.85;26.23;;;22.60;90.10;;;;;;5032164;28;20472;-69
2021/09/17 11:00:52;;;;;;;29.90;25.15;;;22.90;90.00;;;;;;5032337;28;20033;-69
2021/09/17 11:03:52;;;;;;;39.55;30.23;;;23.10;90.00;;;;;;5031726;28;20034;-69
2021/09/17 11:06:27;;;;;;;32.42;26.02;;;23.40;88.80;;;;;;5031412;28;20507;-69
2021/09/17 11:09:02;;;;;;;34.83;25.45;;;23.40;87.90;;;;;;5032011;28;20166;-69
2021/09/17 11:11:41;;;;;;;30.10;22.60;;;23.40;87.20;;;;;;5031911;28;20031;-71
2021/09/17 11:14:16;;;;;;;33.80;24.20;;;23.10;86.70;;;;;;5031997;28;20079;-69
2021/09/17 11:16:44;;;;;;;29.63;22.50;;;23.00;87.40;;;;;;5031854;28;20496;-69
2021/09/17 11:19:13;;;;;;;27.92;23.23;;;23.00;87.50;;;;;;5031368;28;20387;-70
2021/09/17 11:21:41;;;;;;;30.67;24.45;;;22.90;86.50;;;;;;5031880;28;20033;-69
2021/09/17 11:24:22;;;;;;;31.73;24.67;;;22.90;86.80;;;;;;5031848;28;20025;-69
2021/09/17 11:26:52;;;;;;;30.75;21.60;;;22.90;86.30;;;;;;5032057;28;20025;-69
2021/09/17 11:29:20;;;;;;;32.08;23.40;;;22.80;85.70;;;;;;5031311;28;20029;-70
2021/09/17 11:31:49;;;;;;;32.78;22.80;;;22.70;86.20;;;;;;5030560;28;20407;-69
2021/09/17 11:34:16;;;;;;;30.63;21.52;;;22.60;85.50;;;;;;5031464;28;20033;-69
2021/09/17 11:37:02;;;;;;;28.38;21.35;;;22.60;85.60;;;;;;5031775;28;20048;-69
2021/09/17 11:39:32;;;;;;;29.30;19.90;;;22.50;84.70;;;;;;5031341;28;20503;-71
2021/09/17 11:42:01;;;;;;;26.02;20.65;;;22.40;85.00;;;;;;5031669;28;20083;-70
2021/09/17 11:44:34;;;;;;;27.83;19.90;;;22.40;84.40;;;;;;5031299;28;20026;-69
2021/09/17 11:47:02;;;;;;;29.55;22.17;;;22.40;84.10;;;;;;5031811;28;20061;-69
2021/09/17 11:49:29;;;;;;;31.45;22.77;;;22.40;84.90;;;;;;5031141;28;20026;-69
2021/09/17 11:52:04;;;;;;;33.25;25.80;;;22.50;85.30;;;;;;5031705;28;20028;-69
2021/09/17 11:54:30;;;;;;;32.17;24.38;;;22.60;84.60;;;;;;5031167;28;20034;-70
2021/09/17 11:57:11;;;;;;;30.77;22.70;;;22.50;85.10;;;;;;5031389;28;20037;-71
2021/09/17 11:59:46;;;;;;;28.83;21.27;;;22.60;84.90;;;;;;5031273;28;20014;-69
2021/09/17 12:02:20;;;;;;;24.38;17.35;;;22.70;84.50;;;;;;5031435;28;20033;-71
2021/09/17 12:04:56;;;;;;;25.05;18.15;;;22.80;83.70;;;;;;5031735;28;20380;-71
2021/09/17 12:07:23;;;;;;;21.83;15.52;;;22.80;83.10;;;;;;5030963;28;20026;-70
2021/09/17 12:09:49;;;;;;;16.92;13.98;;;22.90;83.20;;;;;;5031751;28;20029;-71
2021/09/17 12:12:15;;;;;;;19.98;13.55;;;22.90;82.20;;;;;;5030943;28;20483;-70
2021/09/17 12:14:54;;;;;;;19.33;12.68;;;22.90;82.10;;;;;;5031365;28;20453;-71
2021/09/17 12:17:20;;;;;;;16.90;12.30;;;22.90;80.50;;;;;;5030943;28;20442;-71
2021/09/17 12:20:06;;;;;;;15.10;12.00;;;22.90;79.00;;;;;;5030186;28;20061;-71
2021/09/17 12:22:33;;;;;;;15.15;11.63;;;23.00;79.40;;;;;;5030909;28;20455;-69
2021/09/17 12:25:06;;;;;;;15.85;10.98;;;23.10;78.80;;;;;;5031542;28;20375;-69
2021/09/17 12:27:33;;;;;;;15.63;12.63;;;23.10;78.80;;;;;;5031311;28;20026;-69